sensor_id;sensor_type;location;lat;lon;timestamp;temperature;humidity
43946;DHT22;29599;51.196;4.428;2022-09-12T00:01:57;16.70;99.90
43946;DHT22;29599;51.196;4.428;2022-09-12T00:04:23;16.70;99.90
43946;DHT22;29599;51.196;4.428;2022-09-12T00:06:48;16.60;99.90
43946;DHT22;29599;51.196;4.428;2022-09-12T00:09:14;16.60;99.90
43946;DHT22;29599;51.196;4.428;2022-09-12T00:11:42;16.50;99.90
43946;DHT22;29599;51.196;4.428;2022-09-12T00:14:09;16.50;99.90
43946;DHT22;29599;51.196;4.428;2022-09-12T00:16:37;16.50;99.90
43946;DHT22;29599;51.196;4.428;2022-09-12T00:19:03;16.50;99.90
43946;DHT22;29599;51.196;4.428;2022-09-12T00:21:32;16.50;99.90
43946;DHT22;29599;51.196;4.428;2022-09-12T00:23:58;16.50;99.90
43946;DHT22;29599;51.196;4.428;2022-09-12T00:26:24;16.50;99.90
43946;DHT22;29599;51.196;4.428;2022-09-12T00:28:49;16.50;99.90
43946;DHT22;29599;51.196;4.428;2022-09-12T00:31:18;16.40;99.90
43946;DHT22;29599;51.196;4.428;2022-09-12T00:33:44;16.40;99.90
43946;DHT22;29599;51.196;4.428;2022-09-12T00:36:16;16.40;99.90
43946;DHT22;29599;51.196;4.428;2022-09-12T00:38:43;16.30;99.90
43946;DHT22;29599;51.196;4.428;2022-09-12T00:43:50;16.30;99.90
43946;DHT22;29599;51.196;4.428;2022-09-12T00:49:11;16.20;99.90
43946;DHT22;29599;51.196;4.428;2022-09-12T00:51:41;16.10;99.90
43946;DHT22;29599;51.196;4.428;2022-09-12T00:54:12;16.20;99.90
43946;DHT22;29599;51.196;4.428;2022-09-12T00:56:40;16.20;99.90
43946;DHT22;29599;51.196;4.428;2022-09-12T00:59:15;16.20;99.90
43946;DHT22;29599;51.196;4.428;2022-09-12T01:01:42;16.20;99.90
43946;DHT22;29599;51.196;4.428;2022-09-12T01:04:10;16.20;99.90
43946;DHT22;29599;51.196;4.428;2022-09-12T01:06:39;16.20;99.90
43946;DHT22;29599;51.196;4.428;2022-09-12T01:09:05;16.20;99.90
43946;DHT22;29599;51.196;4.428;2022-09-12T01:11:36;16.10;99.90
43946;DHT22;29599;51.196;4.428;2022-09-12T01:14:03;16.10;99.90
43946;DHT22;29599;51.196;4.428;2022-09-12T01:16:29;16.10;99.90
43946;DHT22;29599;51.196;4.428;2022-09-12T01:22:03;15.90;99.90
43946;DHT22;29599;51.196;4.428;2022-09-12T01:24:53;16.00;99.90
43946;DHT22;29599;51.196;4.428;2022-09-12T01:27:58;16.10;99.90
43946;DHT22;29599;51.196;4.428;2022-09-12T01:33:31;16.10;99.90
43946;DHT22;29599;51.196;4.428;2022-09-12T01:38:59;16.10;99.90
43946;DHT22;29599;51.196;4.428;2022-09-12T01:41:30;16.00;99.90
43946;DHT22;29599;51.196;4.428;2022-09-12T01:44:15;16.00;99.90
43946;DHT22;29599;51.196;4.428;2022-09-12T01:47:08;16.00;99.90
43946;DHT22;29599;51.196;4.428;2022-09-12T01:49:59;16.00;99.90
43946;DHT22;29599;51.196;4.428;2022-09-12T01:52:38;15.90;99.90
43946;DHT22;29599;51.196;4.428;2022-09-12T01:55:16;15.90;99.90
43946;DHT22;29599;51.196;4.428;2022-09-12T01:57:50;15.90;99.90
43946;DHT22;29599;51.196;4.428;2022-09-12T02:00:18;15.90;99.90
43946;DHT22;29599;51.196;4.428;2022-09-12T02:02:58;16.00;99.90
43946;DHT22;29599;51.196;4.428;2022-09-12T02:08:02;16.00;99.90
43946;DHT22;29599;51.196;4.428;2022-09-12T02:10:33;16.00;99.90
43946;DHT22;29599;51.196;4.428;2022-09-12T02:13:13;16.00;99.90
43946;DHT22;29599;51.196;4.428;2022-09-12T02:15:44;15.90;99.90
43946;DHT22;29599;51.196;4.428;2022-09-12T02:18:13;15.90;99.90
43946;DHT22;29599;51.196;4.428;2022-09-12T02:20:41;15.90;99.90
43946;DHT22;29599;51.196;4.428;2022-09-12T02:23:11;15.90;99.90
43946;DHT22;29599;51.196;4.428;2022-09-12T02:25:41;15.80;99.90
43946;DHT22;29599;51.196;4.428;2022-09-12T02:28:15;15.90;99.90
43946;DHT22;29599;51.196;4.428;2022-09-12T02:39:08;15.80;99.90
43946;DHT22;29599;51.196;4.428;2022-09-12T02:41:34;15.80;99.90
43946;DHT22;29599;51.196;4.428;2022-09-12T02:44:00;15.70;99.90
43946;DHT22;29599;51.196;4.428;2022-09-12T02:46:34;15.80;99.90
43946;DHT22;29599;51.196;4.428;2022-09-12T02:49:01;15.80;99.90
43946;DHT22;29599;51.196;4.428;2022-09-12T02:51:27;15.80;99.90
43946;DHT22;29599;51.196;4.428;2022-09-12T02:53:52;15.80;99.90
43946;DHT22;29599;51.196;4.428;2022-09-12T02:56:24;15.70;99.90
43946;DHT22;29599;51.196;4.428;2022-09-12T02:58:52;15.60;99.90
43946;DHT22;29599;51.196;4.428;2022-09-12T03:06:32;15.70;99.90
43946;DHT22;29599;51.196;4.428;2022-09-12T03:09:16;15.70;99.90
43946;DHT22;29599;51.196;4.428;2022-09-12T03:15:24;15.60;99.90
43946;DHT22;29599;51.196;4.428;2022-09-12T03:23:54;15.70;99.90
43946;DHT22;29599;51.196;4.428;2022-09-12T03:29:01;15.70;99.90
43946;DHT22;29599;51.196;4.428;2022-09-12T03:31:27;15.60;99.90
43946;DHT22;29599;51.196;4.428;2022-09-12T03:33:53;15.60;99.90
43946;DHT22;29599;51.196;4.428;2022-09-12T03:36:22;15.50;99.90
43946;DHT22;29599;51.196;4.428;2022-09-12T03:38:49;15.60;99.90
43946;DHT22;29599;51.196;4.428;2022-09-12T03:41:14;15.60;99.90
43946;DHT22;29599;51.196;4.428;2022-09-12T03:43:40;15.60;99.90
43946;DHT22;29599;51.196;4.428;2022-09-12T03:46:05;15.60;99.90
43946;DHT22;29599;51.196;4.428;2022-09-12T03:48:31;15.60;99.90
43946;DHT22;29599;51.196;4.428;2022-09-12T03:51:05;15.50;99.90
43946;DHT22;29599;51.196;4.428;2022-09-12T03:53:32;15.40;99.90
43946;DHT22;29599;51.196;4.428;2022-09-12T03:55:58;15.50;99.90
43946;DHT22;29599;51.196;4.428;2022-09-12T03:58:28;15.50;99.90
43946;DHT22;29599;51.196;4.428;2022-09-12T04:00:54;15.50;99.90
43946;DHT22;29599;51.196;4.428;2022-09-12T04:03:19;15.50;99.90
43946;DHT22;29599;51.196;4.428;2022-09-12T04:05:45;15.50;99.90
43946;DHT22;29599;51.196;4.428;2022-09-12T04:08:12;15.40;99.90
43946;DHT22;29599;51.196;4.428;2022-09-12T04:10:37;15.50;99.90
43946;DHT22;29599;51.196;4.428;2022-09-12T04:13:03;15.50;99.90
43946;DHT22;29599;51.196;4.428;2022-09-12T04:15:29;15.50;99.90
43946;DHT22;29599;51.196;4.428;2022-09-12T04:17:54;15.50;99.90
43946;DHT22;29599;51.196;4.428;2022-09-12T04:20:20;15.50;99.90
43946;DHT22;29599;51.196;4.428;2022-09-12T04:22:45;15.50;99.90
43946;DHT22;29599;51.196;4.428;2022-09-12T04:25:11;15.40;99.90
43946;DHT22;29599;51.196;4.428;2022-09-12T04:27:37;15.40;99.90
43946;DHT22;29599;51.196;4.428;2022-09-12T04:30:03;15.40;99.90
43946;DHT22;29599;51.196;4.428;2022-09-12T04:32:30;15.30;99.90
43946;DHT22;29599;51.196;4.428;2022-09-12T04:34:56;15.30;99.90
43946;DHT22;29599;51.196;4.428;2022-09-12T04:37:22;15.30;99.90
43946;DHT22;29599;51.196;4.428;2022-09-12T04:39:48;15.30;99.90
43946;DHT22;29599;51.196;4.428;2022-09-12T04:42:15;15.20;99.90
43946;DHT22;29599;51.196;4.428;2022-09-12T04:44:40;15.20;99.90
43946;DHT22;29599;51.196;4.428;2022-09-12T04:47:06;15.20;99.90
43946;DHT22;29599;51.196;4.428;2022-09-12T04:49:32;15.20;99.90
43946;DHT22;29599;51.196;4.428;2022-09-12T04:51:57;15.30;99.90
43946;DHT22;29599;51.196;4.428;2022-09-12T04:54:23;15.20;99.90
43946;DHT22;29599;51.196;4.428;2022-09-12T04:56:49;15.20;99.90
43946;DHT22;29599;51.196;4.428;2022-09-12T04:59:17;15.20;99.90
43946;DHT22;29599;51.196;4.428;2022-09-12T05:01:43;15.20;99.90
43946;DHT22;29599;51.196;4.428;2022-09-12T05:04:10;15.10;99.90
43946;DHT22;29599;51.196;4.428;2022-09-12T05:06:38;15.20;99.90
43946;DHT22;29599;51.196;4.428;2022-09-12T05:09:06;15.20;99.90
43946;DHT22;29599;51.196;4.428;2022-09-12T05:11:34;15.20;99.90
43946;DHT22;29599;51.196;4.428;2022-09-12T05:14:00;15.20;99.90
43946;DHT22;29599;51.196;4.428;2022-09-12T05:16:27;15.10;99.90
43946;DHT22;29599;51.196;4.428;2022-09-12T05:18:54;15.20;99.90
43946;DHT22;29599;51.196;4.428;2022-09-12T05:21:21;15.20;99.90
43946;DHT22;29599;51.196;4.428;2022-09-12T05:23:51;15.20;99.90
43946;DHT22;29599;51.196;4.428;2022-09-12T05:26:17;15.20;99.90
43946;DHT22;29599;51.196;4.428;2022-09-12T05:28:45;15.20;99.90
43946;DHT22;29599;51.196;4.428;2022-09-12T05:31:20;15.20;99.90
43946;DHT22;29599;51.196;4.428;2022-09-12T05:33:48;15.20;99.90
43946;DHT22;29599;51.196;4.428;2022-09-12T05:36:16;15.20;99.90
43946;DHT22;29599;51.196;4.428;2022-09-12T05:38:42;15.20;99.90
43946;DHT22;29599;51.196;4.428;2022-09-12T05:41:10;15.20;99.90
43946;DHT22;29599;51.196;4.428;2022-09-12T05:43:38;15.20;99.90
43946;DHT22;29599;51.196;4.428;2022-09-12T05:46:24;15.20;99.90
43946;DHT22;29599;51.196;4.428;2022-09-12T05:48:50;15.30;99.90
43946;DHT22;29599;51.196;4.428;2022-09-12T05:51:27;15.30;99.90
43946;DHT22;29599;51.196;4.428;2022-09-12T05:53:55;15.40;99.90
43946;DHT22;29599;51.196;4.428;2022-09-12T05:56:28;15.50;99.90
43946;DHT22;29599;51.196;4.428;2022-09-12T05:59:15;15.50;99.90
43946;DHT22;29599;51.196;4.428;2022-09-12T06:01:41;15.50;99.90
43946;DHT22;29599;51.196;4.428;2022-09-12T06:04:06;15.50;99.90
43946;DHT22;29599;51.196;4.428;2022-09-12T06:06:35;15.40;99.90
43946;DHT22;29599;51.196;4.428;2022-09-12T06:09:03;15.40;99.90
43946;DHT22;29599;51.196;4.428;2022-09-12T06:11:31;15.40;99.90
43946;DHT22;29599;51.196;4.428;2022-09-12T06:13:58;15.40;99.90
43946;DHT22;29599;51.196;4.428;2022-09-12T06:16:27;15.40;99.90
43946;DHT22;29599;51.196;4.428;2022-09-12T06:18:54;15.50;99.90
43946;DHT22;29599;51.196;4.428;2022-09-12T06:21:21;15.60;99.90
43946;DHT22;29599;51.196;4.428;2022-09-12T06:23:48;15.60;99.90
43946;DHT22;29599;51.196;4.428;2022-09-12T06:26:16;15.70;99.90
43946;DHT22;29599;51.196;4.428;2022-09-12T06:28:43;15.70;99.90
43946;DHT22;29599;51.196;4.428;2022-09-12T06:31:17;15.70;99.90
43946;DHT22;29599;51.196;4.428;2022-09-12T06:33:46;15.80;99.90
43946;DHT22;29599;51.196;4.428;2022-09-12T06:36:17;15.80;99.90
43946;DHT22;29599;51.196;4.428;2022-09-12T06:38:44;15.80;99.90
43946;DHT22;29599;51.196;4.428;2022-09-12T06:41:16;15.90;99.90
43946;DHT22;29599;51.196;4.428;2022-09-12T06:43:41;15.90;99.90
43946;DHT22;29599;51.196;4.428;2022-09-12T06:46:08;15.90;99.90
43946;DHT22;29599;51.196;4.428;2022-09-12T06:48:34;16.00;99.90
43946;DHT22;29599;51.196;4.428;2022-09-12T06:51:05;16.00;99.90
43946;DHT22;29599;51.196;4.428;2022-09-12T06:53:34;16.10;99.90
43946;DHT22;29599;51.196;4.428;2022-09-12T06:56:08;16.20;99.90
43946;DHT22;29599;51.196;4.428;2022-09-12T06:58:34;16.20;99.90
43946;DHT22;29599;51.196;4.428;2022-09-12T07:01:08;16.30;99.90
43946;DHT22;29599;51.196;4.428;2022-09-12T07:03:35;16.30;99.90
43946;DHT22;29599;51.196;4.428;2022-09-12T07:06:04;16.40;99.90
43946;DHT22;29599;51.196;4.428;2022-09-12T07:08:31;16.40;99.90
43946;DHT22;29599;51.196;4.428;2022-09-12T07:10:58;16.50;99.90
43946;DHT22;29599;51.196;4.428;2022-09-12T07:13:25;16.50;99.90
43946;DHT22;29599;51.196;4.428;2022-09-12T07:15:51;16.60;99.90
43946;DHT22;29599;51.196;4.428;2022-09-12T07:18:17;16.70;99.90
43946;DHT22;29599;51.196;4.428;2022-09-12T07:20:42;16.70;99.90
43946;DHT22;29599;51.196;4.428;2022-09-12T07:23:08;16.70;99.90
43946;DHT22;29599;51.196;4.428;2022-09-12T07:25:34;16.80;99.90
43946;DHT22;29599;51.196;4.428;2022-09-12T07:27:59;16.80;99.90
43946;DHT22;29599;51.196;4.428;2022-09-12T07:30:25;16.90;99.90
43946;DHT22;29599;51.196;4.428;2022-09-12T07:32:52;16.90;99.90
43946;DHT22;29599;51.196;4.428;2022-09-12T07:35:19;17.00;99.90
43946;DHT22;29599;51.196;4.428;2022-09-12T07:37:44;17.00;99.90
43946;DHT22;29599;51.196;4.428;2022-09-12T07:40:10;17.00;99.90
43946;DHT22;29599;51.196;4.428;2022-09-12T07:42:35;17.00;99.90
43946;DHT22;29599;51.196;4.428;2022-09-12T07:45:01;17.00;99.90
43946;DHT22;29599;51.196;4.428;2022-09-12T07:47:27;17.10;99.90
43946;DHT22;29599;51.196;4.428;2022-09-12T07:49:52;17.10;99.90
43946;DHT22;29599;51.196;4.428;2022-09-12T07:52:18;17.10;99.90
43946;DHT22;29599;51.196;4.428;2022-09-12T07:54:43;17.10;99.90
43946;DHT22;29599;51.196;4.428;2022-09-12T07:57:09;17.20;99.90
43946;DHT22;29599;51.196;4.428;2022-09-12T07:59:35;17.20;99.90
43946;DHT22;29599;51.196;4.428;2022-09-12T08:02:12;17.20;99.90
43946;DHT22;29599;51.196;4.428;2022-09-12T08:04:41;17.30;99.90
43946;DHT22;29599;51.196;4.428;2022-09-12T08:07:08;17.40;99.90
43946;DHT22;29599;51.196;4.428;2022-09-12T08:09:34;17.30;99.90
43946;DHT22;29599;51.196;4.428;2022-09-12T08:12:00;17.40;99.90
43946;DHT22;29599;51.196;4.428;2022-09-12T08:14:26;17.40;99.90
43946;DHT22;29599;51.196;4.428;2022-09-12T08:16:51;17.50;99.90
43946;DHT22;29599;51.196;4.428;2022-09-12T08:19:17;17.50;99.90
43946;DHT22;29599;51.196;4.428;2022-09-12T08:21:43;17.60;99.90
43946;DHT22;29599;51.196;4.428;2022-09-12T08:24:11;17.60;99.90
43946;DHT22;29599;51.196;4.428;2022-09-12T08:26:36;17.70;99.90
43946;DHT22;29599;51.196;4.428;2022-09-12T08:29:03;17.70;99.90
43946;DHT22;29599;51.196;4.428;2022-09-12T08:31:29;17.70;99.90
43946;DHT22;29599;51.196;4.428;2022-09-12T08:34:01;17.80;99.90
43946;DHT22;29599;51.196;4.428;2022-09-12T08:36:27;17.80;99.90
43946;DHT22;29599;51.196;4.428;2022-09-12T08:38:56;17.90;99.90
43946;DHT22;29599;51.196;4.428;2022-09-12T08:41:48;17.90;99.90
43946;DHT22;29599;51.196;4.428;2022-09-12T08:47:08;18.00;99.90
43946;DHT22;29599;51.196;4.428;2022-09-12T08:49:50;18.00;99.90
43946;DHT22;29599;51.196;4.428;2022-09-12T08:55:36;18.10;99.90
43946;DHT22;29599;51.196;4.428;2022-09-12T08:58:19;18.10;99.90
43946;DHT22;29599;51.196;4.428;2022-09-12T09:01:11;18.10;99.90
43946;DHT22;29599;51.196;4.428;2022-09-12T09:06:43;18.20;99.90
43946;DHT22;29599;51.196;4.428;2022-09-12T09:20:27;18.50;99.90
43946;DHT22;29599;51.196;4.428;2022-09-12T09:23:02;18.60;99.90
43946;DHT22;29599;51.196;4.428;2022-09-12T09:28:59;18.70;99.90
43946;DHT22;29599;51.196;4.428;2022-09-12T09:31:32;18.80;99.90
43946;DHT22;29599;51.196;4.428;2022-09-12T09:33:58;18.90;99.90
43946;DHT22;29599;51.196;4.428;2022-09-12T09:36:48;19.00;99.90
43946;DHT22;29599;51.196;4.428;2022-09-12T09:42:44;19.40;99.90
43946;DHT22;29599;51.196;4.428;2022-09-12T09:45:19;19.60;99.90
43946;DHT22;29599;51.196;4.428;2022-09-12T09:47:57;19.80;99.90
43946;DHT22;29599;51.196;4.428;2022-09-12T09:50:24;20.00;99.90
43946;DHT22;29599;51.196;4.428;2022-09-12T09:52:51;20.10;99.90
43946;DHT22;29599;51.196;4.428;2022-09-12T09:55:28;20.30;99.90
43946;DHT22;29599;51.196;4.428;2022-09-12T09:57:55;20.50;99.90
43946;DHT22;29599;51.196;4.428;2022-09-12T10:00:23;20.50;99.90
43946;DHT22;29599;51.196;4.428;2022-09-12T10:05:27;20.80;99.90
43946;DHT22;29599;51.196;4.428;2022-09-12T10:07:53;20.90;99.90
43946;DHT22;29599;51.196;4.428;2022-09-12T10:10:19;21.00;99.90
43946;DHT22;29599;51.196;4.428;2022-09-12T10:12:48;21.10;99.90
43946;DHT22;29599;51.196;4.428;2022-09-12T10:15:21;21.20;99.90
43946;DHT22;29599;51.196;4.428;2022-09-12T10:17:49;21.20;99.90
43946;DHT22;29599;51.196;4.428;2022-09-12T10:23:33;21.30;99.90
43946;DHT22;29599;51.196;4.428;2022-09-12T10:26:13;21.30;99.90
43946;DHT22;29599;51.196;4.428;2022-09-12T10:28:42;21.40;99.90
43946;DHT22;29599;51.196;4.428;2022-09-12T10:31:13;21.40;99.90
43946;DHT22;29599;51.196;4.428;2022-09-12T10:33:47;21.50;99.90
43946;DHT22;29599;51.196;4.428;2022-09-12T10:36:18;21.60;99.90
43946;DHT22;29599;51.196;4.428;2022-09-12T10:38:53;21.50;99.90
43946;DHT22;29599;51.196;4.428;2022-09-12T10:41:20;21.50;99.90
43946;DHT22;29599;51.196;4.428;2022-09-12T10:43:46;21.50;99.90
43946;DHT22;29599;51.196;4.428;2022-09-12T10:46:20;21.50;99.90
43946;DHT22;29599;51.196;4.428;2022-09-12T10:48:47;21.60;99.90
43946;DHT22;29599;51.196;4.428;2022-09-12T10:53:58;21.70;99.90
43946;DHT22;29599;51.196;4.428;2022-09-12T10:56:30;21.70;99.90
43946;DHT22;29599;51.196;4.428;2022-09-12T11:27:18;21.90;99.90
43946;DHT22;29599;51.196;4.428;2022-09-12T11:30:01;21.90;99.90
43946;DHT22;29599;51.196;4.428;2022-09-12T11:35:25;22.00;99.90
43946;DHT22;29599;51.196;4.428;2022-09-12T11:43:47;22.10;99.90
43946;DHT22;29599;51.196;4.428;2022-09-12T11:46:33;22.10;99.90
43946;DHT22;29599;51.196;4.428;2022-09-12T11:51:54;22.00;99.90
43946;DHT22;29599;51.196;4.428;2022-09-12T11:57:22;22.00;99.90
43946;DHT22;29599;51.196;4.428;2022-09-12T12:00:02;22.00;99.90
43946;DHT22;29599;51.196;4.428;2022-09-12T12:02:47;22.00;99.90
43946;DHT22;29599;51.196;4.428;2022-09-12T12:05:21;22.00;99.90
43946;DHT22;29599;51.196;4.428;2022-09-12T12:07:59;22.00;99.90
43946;DHT22;29599;51.196;4.428;2022-09-12T12:12:55;22.00;99.90
43946;DHT22;29599;51.196;4.428;2022-09-12T12:15:23;22.10;99.90
43946;DHT22;29599;51.196;4.428;2022-09-12T12:18:04;22.00;99.90
43946;DHT22;29599;51.196;4.428;2022-09-12T12:20:31;22.10;99.90
43946;DHT22;29599;51.196;4.428;2022-09-12T12:22:57;22.10;99.90
43946;DHT22;29599;51.196;4.428;2022-09-12T12:25:39;22.10;99.90
43946;DHT22;29599;51.196;4.428;2022-09-12T12:28:06;22.10;99.90
43946;DHT22;29599;51.196;4.428;2022-09-12T12:35:44;22.10;99.90
43946;DHT22;29599;51.196;4.428;2022-09-12T12:38:36;22.10;99.90
43946;DHT22;29599;51.196;4.428;2022-09-12T12:45:02;22.10;99.90
43946;DHT22;29599;51.196;4.428;2022-09-12T12:47:21;22.10;99.90
43946;DHT22;29599;51.196;4.428;2022-09-12T12:55:53;22.20;99.90
43946;DHT22;29599;51.196;4.428;2022-09-12T12:58:34;22.10;99.90
43946;DHT22;29599;51.196;4.428;2022-09-12T13:03:31;22.10;99.90
43946;DHT22;29599;51.196;4.428;2022-09-12T13:06:04;22.10;99.90
43946;DHT22;29599;51.196;4.428;2022-09-12T13:08:38;22.00;99.90
43946;DHT22;29599;51.196;4.428;2022-09-12T13:11:10;22.00;99.90
43946;DHT22;29599;51.196;4.428;2022-09-12T13:13:44;22.00;99.90
43946;DHT22;29599;51.196;4.428;2022-09-12T13:16:38;22.00;99.90
43946;DHT22;29599;51.196;4.428;2022-09-12T13:19:13;22.00;99.90
43946;DHT22;29599;51.196;4.428;2022-09-12T13:21:54;22.00;99.90
43946;DHT22;29599;51.196;4.428;2022-09-12T13:24:21;22.00;99.90
43946;DHT22;29599;51.196;4.428;2022-09-12T13:26:47;22.00;99.90
43946;DHT22;29599;51.196;4.428;2022-09-12T13:29:23;22.00;99.90
43946;DHT22;29599;51.196;4.428;2022-09-12T13:31:58;22.10;99.90
43946;DHT22;29599;51.196;4.428;2022-09-12T13:34:28;22.10;99.90
43946;DHT22;29599;51.196;4.428;2022-09-12T13:37:27;22.00;99.90
43946;DHT22;29599;51.196;4.428;2022-09-12T13:45:39;22.10;99.90
43946;DHT22;29599;51.196;4.428;2022-09-12T13:48:12;22.10;99.90
43946;DHT22;29599;51.196;4.428;2022-09-12T13:50:42;22.10;99.90
43946;DHT22;29599;51.196;4.428;2022-09-12T13:53:14;22.00;99.90
43946;DHT22;29599;51.196;4.428;2022-09-12T13:55:51;22.10;99.90
43946;DHT22;29599;51.196;4.428;2022-09-12T13:58:30;22.10;99.90
43946;DHT22;29599;51.196;4.428;2022-09-12T14:01:06;22.10;99.90
43946;DHT22;29599;51.196;4.428;2022-09-12T14:03:38;22.10;99.90
43946;DHT22;29599;51.196;4.428;2022-09-12T14:06:49;22.10;99.90
43946;DHT22;29599;51.196;4.428;2022-09-12T14:09:25;22.10;99.90
43946;DHT22;29599;51.196;4.428;2022-09-12T14:11:52;22.20;99.90
43946;DHT22;29599;51.196;4.428;2022-09-12T14:16:52;22.20;99.90
43946;DHT22;29599;51.196;4.428;2022-09-12T14:19:25;22.30;99.90
43946;DHT22;29599;51.196;4.428;2022-09-12T14:21:57;22.20;99.90
43946;DHT22;29599;51.196;4.428;2022-09-12T14:24:23;22.20;99.90
43946;DHT22;29599;51.196;4.428;2022-09-12T14:26:51;22.20;99.90
43946;DHT22;29599;51.196;4.428;2022-09-12T14:29:19;22.20;99.90
43946;DHT22;29599;51.196;4.428;2022-09-12T14:31:59;22.10;99.90
43946;DHT22;29599;51.196;4.428;2022-09-12T14:34:25;22.20;99.90
43946;DHT22;29599;51.196;4.428;2022-09-12T14:36:52;22.10;99.90
43946;DHT22;29599;51.196;4.428;2022-09-12T14:39:32;22.10;99.90
43946;DHT22;29599;51.196;4.428;2022-09-12T14:42:04;22.10;99.90
43946;DHT22;29599;51.196;4.428;2022-09-12T14:44:32;22.10;99.90
43946;DHT22;29599;51.196;4.428;2022-09-12T14:47:11;22.20;99.90
43946;DHT22;29599;51.196;4.428;2022-09-12T14:49:38;22.20;99.90
43946;DHT22;29599;51.196;4.428;2022-09-12T14:52:20;22.20;99.90
43946;DHT22;29599;51.196;4.428;2022-09-12T14:55:02;22.20;99.90
43946;DHT22;29599;51.196;4.428;2022-09-12T14:57:34;22.10;99.90
43946;DHT22;29599;51.196;4.428;2022-09-12T15:02:35;22.20;99.90
43946;DHT22;29599;51.196;4.428;2022-09-12T15:10:06;22.10;99.90
43946;DHT22;29599;51.196;4.428;2022-09-12T15:12:38;22.20;99.90
43946;DHT22;29599;51.196;4.428;2022-09-12T15:15:19;22.20;99.90
43946;DHT22;29599;51.196;4.428;2022-09-12T15:17:45;22.20;99.90
43946;DHT22;29599;51.196;4.428;2022-09-12T15:20:12;22.20;99.90
43946;DHT22;29599;51.196;4.428;2022-09-12T15:22:38;22.30;99.90
43946;DHT22;29599;51.196;4.428;2022-09-12T15:25:05;22.30;99.90
43946;DHT22;29599;51.196;4.428;2022-09-12T15:27:31;22.30;99.90
43946;DHT22;29599;51.196;4.428;2022-09-12T15:29:57;22.20;99.90
43946;DHT22;29599;51.196;4.428;2022-09-12T15:32:25;22.30;99.90
43946;DHT22;29599;51.196;4.428;2022-09-12T15:34:51;22.20;99.90
43946;DHT22;29599;51.196;4.428;2022-09-12T15:37:19;22.20;99.90
43946;DHT22;29599;51.196;4.428;2022-09-12T15:39:46;22.20;99.90
43946;DHT22;29599;51.196;4.428;2022-09-12T15:42:12;22.10;99.90
43946;DHT22;29599;51.196;4.428;2022-09-12T15:44:39;22.10;99.90
43946;DHT22;29599;51.196;4.428;2022-09-12T15:47:05;22.10;99.90
43946;DHT22;29599;51.196;4.428;2022-09-12T15:49:30;22.10;99.90
43946;DHT22;29599;51.196;4.428;2022-09-12T15:51:56;22.10;99.90
43946;DHT22;29599;51.196;4.428;2022-09-12T15:54:22;22.20;99.90
43946;DHT22;29599;51.196;4.428;2022-09-12T15:56:48;22.20;99.90
43946;DHT22;29599;51.196;4.428;2022-09-12T15:59:14;22.10;99.90
43946;DHT22;29599;51.196;4.428;2022-09-12T16:01:39;22.20;99.90
43946;DHT22;29599;51.196;4.428;2022-09-12T16:06:43;22.20;99.90
43946;DHT22;29599;51.196;4.428;2022-09-12T16:09:09;22.10;99.90
43946;DHT22;29599;51.196;4.428;2022-09-12T16:11:45;22.10;99.90
43946;DHT22;29599;51.196;4.428;2022-09-12T16:14:15;22.10;99.90
43946;DHT22;29599;51.196;4.428;2022-09-12T16:16:41;22.10;99.90
43946;DHT22;29599;51.196;4.428;2022-09-12T16:19:08;22.20;99.90
43946;DHT22;29599;51.196;4.428;2022-09-12T16:21:35;22.10;99.90
43946;DHT22;29599;51.196;4.428;2022-09-12T16:24:02;22.10;99.90
43946;DHT22;29599;51.196;4.428;2022-09-12T16:26:27;22.10;99.90
43946;DHT22;29599;51.196;4.428;2022-09-12T16:28:54;22.10;99.90
43946;DHT22;29599;51.196;4.428;2022-09-12T16:31:21;22.10;99.90
43946;DHT22;29599;51.196;4.428;2022-09-12T16:33:47;22.10;99.90
43946;DHT22;29599;51.196;4.428;2022-09-12T16:36:15;22.10;99.90
43946;DHT22;29599;51.196;4.428;2022-09-12T16:38:49;22.10;99.90
43946;DHT22;29599;51.196;4.428;2022-09-12T16:41:17;22.10;99.90
43946;DHT22;29599;51.196;4.428;2022-09-12T16:43:43;22.10;99.90
43946;DHT22;29599;51.196;4.428;2022-09-12T16:46:15;22.10;99.90
43946;DHT22;29599;51.196;4.428;2022-09-12T16:48:51;22.10;99.90
43946;DHT22;29599;51.196;4.428;2022-09-12T16:51:23;22.10;99.90
43946;DHT22;29599;51.196;4.428;2022-09-12T16:53:49;22.10;99.90
43946;DHT22;29599;51.196;4.428;2022-09-12T16:56:15;22.10;99.90
43946;DHT22;29599;51.196;4.428;2022-09-12T16:58:41;22.10;99.90
43946;DHT22;29599;51.196;4.428;2022-09-12T17:03:33;22.10;99.90
43946;DHT22;29599;51.196;4.428;2022-09-12T17:06:03;22.10;99.90
43946;DHT22;29599;51.196;4.428;2022-09-12T17:08:29;22.20;99.90
43946;DHT22;29599;51.196;4.428;2022-09-12T17:11:05;22.10;99.90
43946;DHT22;29599;51.196;4.428;2022-09-12T17:13:31;22.20;99.90
43946;DHT22;29599;51.196;4.428;2022-09-12T17:15:59;22.20;99.90
43946;DHT22;29599;51.196;4.428;2022-09-12T17:18:25;22.10;99.90
43946;DHT22;29599;51.196;4.428;2022-09-12T17:20:51;22.20;99.90
43946;DHT22;29599;51.196;4.428;2022-09-12T17:23:17;22.20;99.90
43946;DHT22;29599;51.196;4.428;2022-09-12T17:25:47;22.30;99.90
43946;DHT22;29599;51.196;4.428;2022-09-12T17:28:14;22.30;99.90
43946;DHT22;29599;51.196;4.428;2022-09-12T17:30:40;22.30;99.90
43946;DHT22;29599;51.196;4.428;2022-09-12T17:33:06;22.30;99.90
43946;DHT22;29599;51.196;4.428;2022-09-12T17:35:34;22.10;99.90
43946;DHT22;29599;51.196;4.428;2022-09-12T17:38:00;22.00;99.90
43946;DHT22;29599;51.196;4.428;2022-09-12T17:40:26;22.20;99.90
43946;DHT22;29599;51.196;4.428;2022-09-12T17:42:53;22.30;99.90
43946;DHT22;29599;51.196;4.428;2022-09-12T17:45:18;22.30;99.90
43946;DHT22;29599;51.196;4.428;2022-09-12T17:47:44;22.40;99.90
43946;DHT22;29599;51.196;4.428;2022-09-12T17:50:10;22.40;99.90
43946;DHT22;29599;51.196;4.428;2022-09-12T17:52:41;22.20;99.90
43946;DHT22;29599;51.196;4.428;2022-09-12T17:55:10;22.20;99.90
43946;DHT22;29599;51.196;4.428;2022-09-12T17:57:38;22.20;99.90
43946;DHT22;29599;51.196;4.428;2022-09-12T18:00:05;22.20;99.90
43946;DHT22;29599;51.196;4.428;2022-09-12T18:02:32;22.10;99.90
43946;DHT22;29599;51.196;4.428;2022-09-12T18:04:58;22.10;99.90
43946;DHT22;29599;51.196;4.428;2022-09-12T18:07:24;22.00;99.90
43946;DHT22;29599;51.196;4.428;2022-09-12T18:09:50;22.00;99.90
43946;DHT22;29599;51.196;4.428;2022-09-12T18:12:17;21.90;99.90
43946;DHT22;29599;51.196;4.428;2022-09-12T18:14:44;21.90;99.90
43946;DHT22;29599;51.196;4.428;2022-09-12T18:17:09;21.80;99.90
43946;DHT22;29599;51.196;4.428;2022-09-12T18:19:36;21.80;99.90
43946;DHT22;29599;51.196;4.428;2022-09-12T18:22:03;21.60;99.90
43946;DHT22;29599;51.196;4.428;2022-09-12T18:24:34;21.60;99.90
43946;DHT22;29599;51.196;4.428;2022-09-12T18:27:00;21.50;99.90
43946;DHT22;29599;51.196;4.428;2022-09-12T18:29:28;21.50;99.90